Time;durP1;ratioP1;P1;durP2;ratioP2;P2;SDS_P1;SDS_P2;PMS_P1;PMS_P2;Temp;Humidity;BMP_temperature;BMP_pressure;BME280_temperature;BME280_humidity;BME280_pressure;Samples;Min_cycle;Max_cycle;Signal;HPM_P1;HPM_P2
2023/05/25 00:00:18;;;;;;;4.00;1.92;;;;;;;23.44;64.86;98089.22;4943208;28;20047;-63
2023/05/25 00:02:47;;;;;;;3.72;2.38;;;;;;;23.40;65.40;98093.56;4935802;28;20051;-63
2023/05/25 00:05:17;;;;;;;4.88;2.20;;;;;;;23.39;65.07;98088.44;4937046;28;20047;-62
2023/05/25 00:07:46;;;;;;;7.50;2.33;;;;;;;23.35;65.92;98085.53;4945946;28;20047;-64
2023/05/25 00:10:16;;;;;;;3.53;2.42;;;;;;;23.47;66.04;98083.22;4943206;28;20047;-65
2023/05/25 00:12:45;;;;;;;4.45;2.25;;;;;;;23.30;65.58;98091.00;4938587;28;20055;-62
2023/05/25 00:15:14;;;;;;;3.95;2.53;;;;;;;23.24;65.68;98098.34;4943990;29;20063;-63
2023/05/25 00:17:47;;;;;;;4.47;2.25;;;;;;;23.27;65.55;98097.78;4946940;28;20614;-61
2023/05/25 00:20:18;;;;;;;4.35;2.45;;;;;;;23.38;66.42;98103.06;4943962;28;20043;-61
2023/05/25 00:22:47;;;;;;;6.68;2.40;;;;;;;23.41;65.88;98107.91;4947123;28;20075;-61
2023/05/25 00:25:17;;;;;;;5.20;2.45;;;;;;;23.49;65.65;98108.09;4946012;28;20706;-62
2023/05/25 00:27:46;;;;;;;4.70;2.42;;;;;;;23.57;66.44;98106.63;4946834;28;20051;-62
2023/05/25 00:30:15;;;;;;;4.82;2.42;;;;;;;23.65;66.23;98103.25;4920695;29;20052;-64
2023/05/25 00:32:45;;;;;;;4.45;2.60;;;;;;;23.25;66.31;98104.56;4929535;29;20055;-64
2023/05/25 00:35:15;;;;;;;5.28;2.40;;;;;;;23.31;66.64;98108.81;4946454;28;20146;-64
2023/05/25 00:37:45;;;;;;;5.63;2.20;;;;;;;23.52;66.86;98106.69;4947292;29;20530;-68
2023/05/25 00:40:16;;;;;;;5.57;2.60;;;;;;;23.44;66.13;98118.16;4956765;28;20051;-64
2023/05/25 00:42:46;;;;;;;7.22;2.40;;;;;;;23.32;66.87;98117.75;4943365;28;20131;-64
2023/05/25 00:45:16;;;;;;;5.60;2.70;;;;;;;23.40;65.90;98111.69;4929447;28;20063;-64
2023/05/25 00:47:51;;;;;;;4.80;2.30;;;;;;;23.51;67.13;98115.88;4948356;28;20505;-63
2023/05/25 00:50:39;;;;;;;6.75;2.65;;;;;;;23.72;66.41;98114.53;4932604;28;20388;-63
2023/05/25 00:53:10;;;;;;;4.95;2.70;;;;;;;23.81;65.62;98110.06;4935168;28;20351;-61
2023/05/25 00:55:57;;;;;;;10.68;2.35;;;;;;;23.72;64.85;98117.25;4933635;29;20291;-62
2023/05/25 00:58:30;;;;;;;4.07;2.47;;;;;;;23.63;64.88;98124.41;4933242;29;20051;-63
2023/05/25 01:01:01;;;;;;;2.50;2.10;;;;;;;23.62;65.39;98128.19;4933923;29;20676;-61
2023/05/25 01:03:36;;;;;;;2.75;2.00;;;;;;;23.53;65.67;98132.63;4950149;29;20063;-63
2023/05/25 01:06:12;;;;;;;3.75;2.28;;;;;;;23.61;65.79;98148.19;4932988;29;20035;-62
2023/05/25 01:08:46;;;;;;;3.72;2.22;;;;;;;23.68;65.64;98145.94;4950341;28;20051;-62
2023/05/25 01:11:19;;;;;;;4.47;2.47;;;;;;;23.80;65.04;98146.34;4950254;28;20543;-63
2023/05/25 01:13:52;;;;;;;3.33;2.40;;;;;;;23.72;65.39;98147.00;4950605;28;20146;-66
2023/05/25 01:16:22;;;;;;;3.85;2.30;;;;;;;23.66;64.92;98164.38;4949790;28;20059;-61
2023/05/25 01:18:52;;;;;;;4.93;2.88;;;;;;;23.78;65.34;98153.13;4963804;28;20051;-63
2023/05/25 01:21:53;;;;;;;4.55;2.22;;;;;;;23.84;65.43;98154.66;4917924;29;20075;-61
2023/05/25 01:24:43;;;;;;;7.93;2.28;;;;;;;23.88;64.50;98159.19;4949888;28;20043;-61
2023/05/25 01:27:31;;;;;;;5.53;2.45;;;;;;;24.01;64.22;98163.88;4949069;28;20051;-59
2023/05/25 01:30:03;;;;;;;6.97;2.38;;;;;;;24.06;63.82;98169.22;4932302;29;20055;-59
2023/05/25 01:32:36;;;;;;;2.80;2.08;;;;;;;23.90;62.45;98170.50;4952400;28;20159;-62
2023/05/25 01:35:08;;;;;;;5.43;2.30;;;;;;;24.15;62.40;98175.63;4948235;28;20058;-61
2023/05/25 01:37:44;;;;;;;2.70;1.92;;;;;;;24.21;61.97;98176.31;4935611;29;20050;-60
2023/05/25 01:40:14;;;;;;;5.35;2.40;;;;;;;24.41;62.07;98183.34;4932539;29;20067;-60
2023/05/25 01:42:44;;;;;;;4.53;2.28;;;;;;;24.49;60.93;98177.25;4932549;29;20078;-60
2023/05/25 01:45:15;;;;;;;5.38;2.00;;;;;;;24.69;60.67;98178.84;4949102;28;20055;-60
2023/05/25 01:48:05;;;;;;;4.40;2.33;;;;;;;25.11;59.84;98175.13;4963351;28;20481;-60
2023/05/25 01:50:52;;;;;;;4.40;2.53;;;;;;;25.30;57.81;98175.84;4930742;29;20055;-61
2023/05/25 01:53:33;;;;;;;5.93;2.90;;;;;;;25.42;57.47;98178.84;4942884;28;20038;-59
2023/05/25 01:56:07;;;;;;;4.05;2.60;;;;;;;25.46;56.24;98188.81;4962088;28;20047;-63
2023/05/25 01:58:43;;;;;;;4.57;2.63;;;;;;;25.90;57.09;98190.91;4922914;28;20043;-60
2023/05/25 02:01:17;;;;;;;6.32;3.30;;;;;;;25.96;55.45;98194.31;4944605;28;20051;-60
2023/05/25 02:03:48;;;;;;;5.45;2.70;;;;;;;26.34;53.51;98202.97;4927890;29;20051;-61
2023/05/25 02:06:18;;;;;;;5.43;2.85;;;;;;;26.51;53.47;98203.13;4935642;29;20573;-61
2023/05/25 02:08:47;;;;;;;5.07;2.50;;;;;;;26.48;53.28;98216.50;4927720;29;20047;-62
2023/05/25 02:11:18;;;;;;;10.07;2.50;;;;;;;26.98;53.13;98206.34;4942291;29;20057;-62
2023/05/25 02:13:47;;;;;;;5.13;2.28;;;;;;;26.27;52.03;98213.47;4932176;29;20051;-63
2023/05/25 02:16:16;;;;;;;2.38;1.95;;;;;;;26.77;51.65;98217.72;4944388;28;20154;-60
2023/05/25 02:18:45;;;;;;;3.65;1.90;;;;;;;27.12;50.14;98215.22;4931236;29;20062;-61
2023/05/25 02:21:16;;;;;;;5.35;2.20;;;;;;;27.90;50.50;98221.78;4929270;29;20126;-62
2023/05/25 02:23:46;;;;;;;3.92;2.28;;;;;;;28.07;49.83;98216.38;4911885;29;20525;-60
2023/05/25 02:26:16;;;;;;;3.95;2.40;;;;;;;28.37;47.85;98217.41;4918839;29;20057;-62
2023/05/25 02:28:45;;;;;;;4.40;2.05;;;;;;;28.71;47.41;98225.59;4920879;29;20516;-60
2023/05/25 02:31:17;;;;;;;7.18;2.17;;;;;;;28.16;47.19;98221.84;4910326;29;20534;-60
2023/05/25 02:33:47;;;;;;;2.58;1.67;;;;;;;28.37;47.36;98229.06;4900343;29;20062;-61
2023/05/25 02:36:19;;;;;;;4.30;2.20;;;;;;;28.64;47.67;98227.97;4894976;29;20435;-61
2023/05/25 02:38:50;;;;;;;4.65;1.77;;;;;;;28.17;46.93;98226.19;4912673;29;20052;-61
2023/05/25 02:41:20;;;;;;;2.45;1.60;;;;;;;28.58;46.18;98223.81;4910482;29;20058;-60
2023/05/25 02:43:50;;;;;;;3.42;1.67;;;;;;;28.87;46.06;98225.88;4905850;29;20143;-61
2023/05/25 02:46:21;;;;;;;6.93;1.77;;;;;;;28.83;46.04;98235.84;4927629;29;20047;-61
2023/05/25 02:48:51;;;;;;;3.45;1.45;;;;;;;29.29;45.14;98240.56;4899915;29;20052;-62
2023/05/25 02:51:20;;;;;;;3.70;2.00;;;;;;;28.88;45.11;98241.13;4898769;29;20185;-62
2023/05/25 02:53:50;;;;;;;3.35;1.90;;;;;;;29.17;44.35;98229.50;4919620;29;20051;-63
2023/05/25 02:56:22;;;;;;;3.13;1.50;;;;;;;29.10;44.95;98226.47;4910944;29;20655;-61
2023/05/25 02:58:52;;;;;;;5.20;1.83;;;;;;;29.86;44.09;98208.22;4916025;29;20056;-62
2023/05/25 03:01:33;;;;;;;4.00;1.40;;;;;;;30.13;42.48;98207.75;4911438;29;20056;-61
2023/05/25 03:04:03;;;;;;;4.32;1.83;;;;;;;29.95;43.59;98216.38;4912376;29;20055;-64
2023/05/25 03:06:36;;;;;;;3.55;1.88;;;;;;;30.19;42.77;98220.06;4912512;29;20220;-61
2023/05/25 03:09:13;;;;;;;3.92;1.83;;;;;;;29.88;43.43;98216.88;4906651;29;20048;-61
2023/05/25 03:11:43;;;;;;;5.15;1.58;;;;;;;29.74;42.08;98217.09;4911759;29;20052;-60
2023/05/25 03:14:16;;;;;;;5.30;1.80;;;;;;;29.75;43.97;98217.91;4911957;29;20138;-63
2023/05/25 03:16:52;;;;;;;10.43;1.95;;;;;;;29.70;45.24;98224.34;4907401;29;20059;-60
2023/05/25 03:19:23;;;;;;;4.35;1.60;;;;;;;29.15;43.81;98216.22;4896189;29;20043;-61
2023/05/25 03:21:53;;;;;;;5.47;1.77;;;;;;;29.39;43.60;98223.84;4908105;29;20098;-61
2023/05/25 03:24:22;;;;;;;4.35;1.50;;;;;;;29.51;44.30;98214.97;4911953;29;20130;-63
2023/05/25 03:26:53;;;;;;;4.15;1.58;;;;;;;29.96;43.47;98207.88;4912385;29;20056;-63
2023/05/25 03:29:23;;;;;;;6.22;1.42;;;;;;;29.61;42.79;98211.91;4911504;29;20052;-61
2023/05/25 03:31:53;;;;;;;3.80;1.65;;;;;;;29.47;44.20;98212.13;4907945;29;20142;-61
2023/05/25 03:34:25;;;;;;;3.90;1.77;;;;;;;29.93;42.79;98205.78;4912311;29;20175;-60
2023/05/25 03:36:55;;;;;;;3.08;1.63;;;;;;;29.73;43.14;98211.97;4940352;28;20052;-61
2023/05/25 03:39:25;;;;;;;3.35;1.60;;;;;;;29.85;42.86;98226.53;4919995;29;20047;-61
2023/05/25 03:41:55;;;;;;;3.38;1.85;;;;;;;29.63;43.25;98220.53;4911825;29;20039;-61
2023/05/25 03:44:25;;;;;;;5.68;2.42;;;;;;;29.36;43.93;98230.75;4910964;29;20051;-62
2023/05/25 03:46:54;;;;;;;4.38;2.08;;;;;;;29.92;44.68;98222.53;4912163;29;20056;-63
2023/05/25 03:49:24;;;;;;;4.60;2.20;;;;;;;30.18;42.78;98223.91;4927660;29;20048;-62
2023/05/25 03:51:53;;;;;;;5.20;1.67;;;;;;;30.71;41.54;98217.72;4911626;29;20040;-63
2023/05/25 03:54:23;;;;;;;3.17;1.77;;;;;;;29.97;42.79;98233.22;4911927;29;20386;-62
2023/05/25 03:56:52;;;;;;;2.17;1.70;;;;;;;30.19;43.63;98233.72;4911499;29;20047;-63
2023/05/25 03:59:40;;;;;;;4.40;1.83;;;;;;;30.84;42.20;98234.22;4929531;29;20111;-60
2023/05/25 04:02:09;;;;;;;3.78;1.63;;;;;;;30.67;42.51;98237.91;4897263;29;20107;-61
2023/05/25 04:04:40;;;;;;;4.90;1.98;;;;;;;31.25;43.33;98244.28;4928389;29;20070;-61
2023/05/25 04:07:10;;;;;;;9.15;2.10;;;;;;;30.70;41.56;98248.16;4907509;29;20052;-61
2023/05/25 04:09:39;;;;;;;3.10;2.13;;;;;;;31.16;42.02;98245.16;4908434;29;20547;-61
2023/05/25 04:12:09;;;;;;;4.30;1.92;;;;;;;31.32;40.98;98241.78;4908502;29;20063;-63
2023/05/25 04:14:41;;;;;;;4.85;2.20;;;;;;;30.52;41.62;98238.50;4911434;29;20547;-60
2023/05/25 04:17:11;;;;;;;4.15;1.80;;;;;;;30.65;42.04;98238.22;4910488;29;20055;-63
2023/05/25 04:19:41;;;;;;;3.50;1.90;;;;;;;31.08;42.34;98239.78;4910918;29;20483;-62
2023/05/25 04:22:11;;;;;;;8.15;2.13;;;;;;;30.59;43.19;98228.63;4897418;29;20048;-61
2023/05/25 04:24:41;;;;;;;4.90;1.90;;;;;;;30.23;41.70;98229.19;4914740;29;20487;-61
2023/05/25 04:27:13;;;;;;;3.28;2.17;;;;;;;30.36;43.53;98234.75;4914049;29;20048;-62
2023/05/25 04:29:42;;;;;;;3.63;1.60;;;;;;;30.36;43.94;98240.22;4927227;29;20047;-61
2023/05/25 04:32:31;;;;;;;4.05;1.92;;;;;;;30.38;42.83;98221.53;4905146;29;20551;-62
2023/05/25 04:35:27;;;;;;;5.03;2.15;;;;;;;30.09;42.69;98230.59;4929396;29;20062;-61
2023/05/25 04:38:01;;;;;;;2.50;1.83;;;;;;;30.64;42.90;98228.41;4918382;29;20039;-61
2023/05/25 04:40:32;;;;;;;15.85;2.70;;;;;;;30.85;43.62;98233.84;4913747;29;20394;-64
2023/05/25 04:43:03;;;;;;;12.20;3.05;;;;;;;30.20;42.58;98237.25;4913024;29;20130;-63
2023/05/25 04:45:33;;;;;;;5.07;1.73;;;;;;;30.50;43.81;98238.03;4914709;29;20563;-67
2023/05/25 04:48:03;;;;;;;2.97;2.13;;;;;;;30.04;42.68;98241.72;4932141;29;20043;-67
2023/05/25 04:50:33;;;;;;;4.78;2.08;;;;;;;30.27;43.39;98243.00;4921337;29;20102;-66
2023/05/25 04:53:04;;;;;;;5.60;1.70;;;;;;;30.54;43.20;98255.34;4920536;29;20535;-62
2023/05/25 04:55:35;;;;;;;6.82;2.42;;;;;;;30.50;42.77;98255.22;4917786;29;20481;-61
2023/05/25 04:58:05;;;;;;;3.30;1.90;;;;;;;30.00;43.71;98263.44;4921079;29;20115;-60
2023/05/25 05:00:35;;;;;;;3.03;1.88;;;;;;;30.21;44.65;98271.66;4921784;29;20549;-62
2023/05/25 05:03:05;;;;;;;4.43;1.88;;;;;;;30.19;44.22;98263.78;4920762;29;20193;-62
2023/05/25 05:05:35;;;;;;;5.32;2.10;;;;;;;30.13;44.04;98270.59;4936214;29;20059;-66
2023/05/25 05:08:08;;;;;;;4.13;1.85;;;;;;;29.95;45.66;98274.53;4918279;29;20055;-69
2023/05/25 05:10:38;;;;;;;3.03;1.80;;;;;;;29.90;44.25;98291.09;4919457;29;20043;-64
2023/05/25 05:13:10;;;;;;;4.43;2.03;;;;;;;29.78;46.06;98299.97;4922061;29;20822;-62
2023/05/25 05:15:40;;;;;;;4.77;1.90;;;;;;;29.26;44.58;98312.94;4921076;29;20051;-63
2023/05/25 05:18:09;;;;;;;5.88;1.88;;;;;;;29.01;47.27;98322.75;4915336;29;20051;-64
2023/05/25 05:20:39;;;;;;;6.93;2.10;;;;;;;29.11;49.72;98329.81;4902559;29;20102;-62
2023/05/25 05:23:09;;;;;;;6.55;2.30;;;;;;;29.00;49.25;98351.13;4923796;29;20077;-65
2023/05/25 05:25:38;;;;;;;8.88;2.67;;;;;;;28.85;49.65;98368.00;4933500;29;20106;-65
2023/05/25 05:28:07;;;;;;;7.18;1.80;;;;;;;28.77;50.15;98387.03;4920991;28;20107;-62
2023/05/25 05:30:40;;;;;;;7.72;2.17;;;;;;;28.65;50.77;98414.09;4932778;29;20775;-62
2023/05/25 05:33:10;;;;;;;26.67;3.95;;;;;;;28.09;49.72;98435.53;4931704;28;20065;-63
2023/05/25 05:35:44;;;;;;;47.70;6.47;;;;;;;27.33;52.05;98452.09;4931917;29;20061;-59
2023/05/25 05:38:21;;;;;;;42.03;7.30;;;;;;;26.60;53.47;98472.94;4931718;29;20062;-60
2023/05/25 05:40:51;;;;;;;52.78;6.75;;;;;;;26.19;55.84;98458.50;4927983;29;20442;-58
2023/05/25 05:43:23;;;;;;;42.00;6.03;;;;;;;25.95;58.27;98455.94;4924807;29;20471;-57
2023/05/25 05:45:52;;;;;;;51.13;6.82;;;;;;;25.47;58.37;98429.06;4919685;29;20052;-60
2023/05/25 05:48:22;;;;;;;34.47;6.53;;;;;;;24.72;62.16;98409.28;4931322;28;20057;-57
2023/05/25 05:50:52;;;;;;;30.70;6.18;;;;;;;24.79;62.58;98384.50;4931144;29;20046;-57
2023/05/25 05:53:21;;;;;;;23.70;6.13;;;;;;;24.68;65.26;98364.09;4924168;29;20490;-59
2023/05/25 05:55:53;;;;;;;21.10;5.95;;;;;;;24.92;63.45;98373.78;4925193;28;20086;-59
2023/05/25 05:58:27;;;;;;;25.42;6.97;;;;;;;25.64;62.57;98390.56;4955217;28;20039;-57
2023/05/25 06:00:58;;;;;;;29.67;8.02;;;;;;;26.25;60.41;98419.31;4948787;28;20055;-58
2023/05/25 06:03:28;;;;;;;23.45;6.70;;;;;;;26.02;59.37;98431.16;4923468;28;20145;-57
2023/05/25 06:05:57;;;;;;;15.00;6.50;;;;;;;26.01;60.60;98424.09;4929600;29;20184;-57
2023/05/25 06:08:26;;;;;;;25.92;7.50;;;;;;;25.42;59.77;98401.22;4931326;29;20055;-59
2023/05/25 06:10:56;;;;;;;20.83;7.75;;;;;;;25.50;59.80;98392.38;4930447;29;20130;-58
2023/05/25 06:13:26;;;;;;;28.35;8.32;;;;;;;25.45;59.93;98403.31;4935992;28;20079;-58
2023/05/25 06:15:55;;;;;;;21.52;9.80;;;;;;;25.16;60.24;98400.81;4930667;29;20110;-58
2023/05/25 06:18:25;;;;;;;27.55;11.48;;;;;;;25.12;60.53;98388.13;4929998;28;20184;-59
2023/05/25 06:20:57;;;;;;;20.27;11.68;;;;;;;25.00;61.41;98375.03;4962799;28;20047;-60
2023/05/25 06:23:26;;;;;;;19.95;10.70;;;;;;;24.83;63.14;98370.09;4929781;29;20051;-58
2023/05/25 06:25:55;;;;;;;15.05;7.80;;;;;;;24.82;62.95;98360.38;4931143;29;20055;-58
2023/05/25 06:28:24;;;;;;;13.15;6.93;;;;;;;24.68;64.96;98345.13;4929906;28;20047;-58
2023/05/25 06:30:54;;;;;;;13.07;6.90;;;;;;;24.59;65.89;98307.88;4948326;28;20110;-57
2023/05/25 06:33:23;;;;;;;11.73;6.45;;;;;;;24.56;69.80;98307.69;4930422;29;20047;-56
2023/05/25 06:35:59;;;;;;;8.88;5.40;;;;;;;24.40;71.94;98325.19;4931639;29;20051;-58
2023/05/25 06:38:29;;;;;;;9.10;4.75;;;;;;;24.14;72.70;98341.75;4931787;29;20762;-59
2023/05/25 06:41:03;;;;;;;11.43;4.47;;;;;;;23.80;70.92;98365.41;4931546;29;20138;-59
2023/05/25 06:43:33;;;;;;;8.82;4.43;;;;;;;23.85;71.15;98378.88;4930699;29;20067;-60
2023/05/25 06:46:16;;;;;;;8.38;4.65;;;;;;;24.13;71.49;98378.00;4915093;28;20047;-58
2023/05/25 06:48:47;;;;;;;7.60;4.47;;;;;;;24.52;71.64;98374.31;4932204;29;20062;-60
2023/05/25 06:51:16;;;;;;;9.07;4.95;;;;;;;24.65;70.87;98376.31;4931931;28;20055;-59
2023/05/25 06:53:45;;;;;;;8.90;5.20;;;;;;;24.65;72.55;98357.34;4951518;28;20340;-59
2023/05/25 06:56:15;;;;;;;9.18;4.80;;;;;;;24.64;71.72;98339.50;4931600;29;20113;-59
2023/05/25 06:58:44;;;;;;;10.60;4.50;;;;;;;24.70;71.45;98305.00;4948891;29;20051;-59
2023/05/25 07:01:15;;;;;;;7.35;4.30;;;;;;;24.76;69.01;98291.09;4931374;29;20047;-59
2023/05/25 07:03:44;;;;;;;6.22;3.88;;;;;;;24.80;70.11;98280.47;4932508;29;20047;-60
2023/05/25 07:06:15;;;;;;;7.85;4.00;;;;;;;25.07;69.27;98275.19;4947588;29;20118;-60
2023/05/25 07:08:45;;;;;;;3.97;3.58;;;;;;;25.18;68.36;98271.19;4948970;29;20051;-59
2023/05/25 07:11:19;;;;;;;6.85;4.10;;;;;;;25.25;67.39;98268.13;4947855;28;20114;-58
2023/05/25 07:13:49;;;;;;;5.28;3.40;;;;;;;25.21;68.07;98269.81;4933128;29;20118;-59
2023/05/25 07:16:18;;;;;;;5.70;4.05;;;;;;;25.14;68.25;98264.75;4939604;28;20051;-59
2023/05/25 07:18:48;;;;;;;8.85;4.20;;;;;;;25.41;67.99;98264.81;4967839;28;20055;-59
2023/05/25 07:21:17;;;;;;;5.95;4.40;;;;;;;25.39;66.97;98263.53;4963649;28;20796;-61
2023/05/25 07:23:47;;;;;;;7.57;4.07;;;;;;;25.63;67.18;98266.88;4930862;29;20053;-59
2023/05/25 07:26:16;;;;;;;7.00;3.80;;;;;;;25.71;65.83;98274.31;4947826;29;20055;-61
2023/05/25 07:28:46;;;;;;;11.98;4.35;;;;;;;25.87;64.48;98269.41;4948313;29;20442;-58
2023/05/25 07:31:16;;;;;;;7.03;3.60;;;;;;;25.92;64.69;98258.44;4947512;28;20134;-59
2023/05/25 07:33:46;;;;;;;5.22;3.80;;;;;;;26.25;64.76;98254.50;4948200;28;20450;-58
2023/05/25 07:36:16;;;;;;;8.35;3.65;;;;;;;26.14;64.54;98265.84;4947749;29;20081;-59
2023/05/25 07:38:46;;;;;;;8.10;3.90;;;;;;;26.05;63.62;98256.81;4948601;28;20055;-58
2023/05/25 07:41:16;;;;;;;6.13;3.53;;;;;;;26.49;62.79;98245.28;4946923;28;20055;-59
2023/05/25 07:43:46;;;;;;;7.60;4.20;;;;;;;26.90;61.57;98245.16;4947978;28;20057;-59
2023/05/25 07:46:16;;;;;;;7.60;3.97;;;;;;;27.02;61.67;98232.59;4928371;29;20356;-59
2023/05/25 07:48:46;;;;;;;7.40;3.92;;;;;;;27.27;61.38;98233.84;4928649;29;20051;-59
2023/05/25 07:51:15;;;;;;;8.73;3.65;;;;;;;27.15;58.70;98215.41;4930640;29;20056;-59
2023/05/25 07:53:44;;;;;;;3.22;2.92;;;;;;;27.31;57.62;98217.72;4947874;28;20083;-59
2023/05/25 07:56:14;;;;;;;5.93;3.25;;;;;;;27.53;57.77;98221.19;4947569;28;20146;-59
2023/05/25 07:58:43;;;;;;;5.40;3.45;;;;;;;27.76;57.88;98202.84;4933679;28;20043;-59
2023/05/25 08:01:13;;;;;;;8.10;3.50;;;;;;;27.91;55.68;98202.41;4951768;28;20654;-59
2023/05/25 08:03:43;;;;;;;6.65;3.58;;;;;;;27.36;55.47;98207.50;4966228;28;20373;-59
2023/05/25 08:06:17;;;;;;;5.80;3.05;;;;;;;27.64;55.63;98206.19;4950752;28;20391;-60
2023/05/25 08:08:48;;;;;;;6.50;3.00;;;;;;;27.78;57.77;98208.00;4951645;28;20047;-61
2023/05/25 08:11:23;;;;;;;6.18;3.38;;;;;;;27.96;55.68;98205.00;4956507;28;20069;-60
2023/05/25 08:13:53;;;;;;;5.57;3.10;;;;;;;27.76;54.01;98191.16;4948158;28;20047;-60
2023/05/25 08:16:22;;;;;;;4.10;3.40;;;;;;;27.69;54.83;98192.44;4933676;28;20083;-59
2023/05/25 08:18:51;;;;;;;5.85;3.70;;;;;;;28.08;56.02;98185.31;4949098;29;20058;-60
2023/05/25 08:21:21;;;;;;;4.68;3.58;;;;;;;27.97;52.77;98182.06;4951135;28;20513;-59
2023/05/25 08:23:52;;;;;;;5.65;3.42;;;;;;;28.34;54.85;98175.25;4951579;29;20358;-60
2023/05/25 08:26:22;;;;;;;4.65;3.35;;;;;;;28.27;53.17;98166.78;4950873;28;20062;-59
2023/05/25 08:29:11;;;;;;;7.43;3.42;;;;;;;28.40;53.57;98163.06;4950845;29;20087;-62
2023/05/25 08:31:42;;;;;;;3.88;3.33;;;;;;;28.46;51.73;98152.78;4951232;28;20138;-58
2023/05/25 08:34:11;;;;;;;5.10;3.53;;;;;;;28.44;51.68;98152.31;4950451;29;20050;-59
2023/05/25 08:36:41;;;;;;;5.03;3.53;;;;;;;28.64;50.78;98143.47;4941893;28;20057;-59
2023/05/25 08:39:10;;;;;;;3.75;3.45;;;;;;;28.68;50.89;98141.69;4909377;28;20051;-60
2023/05/25 08:41:44;;;;;;;6.18;3.58;;;;;;;28.86;52.09;98139.75;4940946;28;20747;-60
2023/05/25 08:44:14;;;;;;;6.28;3.30;;;;;;;28.79;50.23;98137.53;4947155;29;20051;-60
2023/05/25 08:46:50;;;;;;;6.03;3.92;;;;;;;28.64;49.33;98121.66;4944136;28;20047;-59
2023/05/25 08:49:21;;;;;;;4.68;3.13;;;;;;;28.84;49.27;98106.59;4948935;28;20093;-60
2023/05/25 08:51:52;;;;;;;4.63;4.00;;;;;;;28.71;50.10;98113.84;4949839;28;20596;-60
2023/05/25 08:54:34;;;;;;;4.22;2.92;;;;;;;28.90;51.16;98105.28;4949591;28;20066;-60
2023/05/25 08:57:33;;;;;;;4.63;3.55;;;;;;;28.69;48.61;98093.44;4949277;29;20047;-60
2023/05/25 09:00:09;;;;;;;12.32;3.22;;;;;;;28.95;49.00;98088.72;4947781;28;20059;-61
2023/05/25 09:02:50;;;;;;;6.63;3.35;;;;;;;28.82;49.76;98090.53;4943464;28;20189;-60
2023/05/25 09:05:21;;;;;;;7.32;3.63;;;;;;;28.77;49.40;98079.00;4949169;28;20058;-60
2023/05/25 09:07:53;;;;;;;4.88;3.10;;;;;;;28.81;48.51;98078.03;4941685;28;20048;-59
2023/05/25 09:10:26;;;;;;;4.73;3.23;;;;;;;29.08;48.70;98082.25;4947135;28;20054;-59
2023/05/25 09:12:56;;;;;;;5.72;2.95;;;;;;;29.12;48.28;98069.56;4949736;28;20285;-60
2023/05/25 09:15:25;;;;;;;5.88;3.22;;;;;;;28.98;47.92;98082.63;4932539;28;20395;-60
2023/05/25 09:17:55;;;;;;;7.03;2.70;;;;;;;29.27;47.46;98074.47;4949520;28;20043;-60
2023/05/25 09:20:30;;;;;;;6.10;2.67;;;;;;;29.14;47.73;98066.50;4947698;28;20117;-59
2023/05/25 09:23:01;;;;;;;6.35;2.72;;;;;;;29.26;46.79;98075.56;4949192;28;20050;-59
2023/05/25 09:25:32;;;;;;;2.53;2.33;;;;;;;29.34;47.47;98077.50;4950036;28;20051;-61
2023/05/25 09:28:01;;;;;;;2.80;2.25;;;;;;;29.09;46.84;98069.41;4949140;28;20466;-60
2023/05/25 09:30:51;;;;;;;3.05;2.50;;;;;;;29.16;47.42;98072.44;4947440;28;20434;-60
2023/05/25 09:33:20;;;;;;;4.10;2.60;;;;;;;29.25;47.79;98084.13;4944359;28;20043;-59
2023/05/25 09:35:51;;;;;;;3.00;2.67;;;;;;;28.89;47.38;98071.78;4949432;28;20062;-61
2023/05/25 09:38:21;;;;;;;6.95;2.50;;;;;;;29.00;48.01;98050.38;4916424;28;20761;-59
2023/05/25 09:40:51;;;;;;;2.67;2.17;;;;;;;29.10;48.59;98058.19;4940601;28;20580;-59
2023/05/25 09:43:20;;;;;;;7.03;2.60;;;;;;;29.10;48.38;98060.13;4924400;28;20043;-59
2023/05/25 09:46:08;;;;;;;5.68;2.53;;;;;;;29.07;48.72;98060.78;4948018;28;20058;-60
2023/05/25 09:48:38;;;;;;;5.07;2.40;;;;;;;29.33;47.95;98054.09;4944767;28;20086;-60
2023/05/25 09:51:08;;;;;;;5.57;2.40;;;;;;;29.37;47.51;98035.91;4922413;29;20074;-60
2023/05/25 09:53:48;;;;;;;5.07;2.25;;;;;;;29.59;47.07;98029.34;4913480;29;20055;-61
2023/05/25 09:56:18;;;;;;;4.50;2.13;;;;;;;29.42;48.12;98013.09;4939492;28;20066;-60
2023/05/25 09:58:47;;;;;;;6.15;3.55;;;;;;;29.50;48.10;98014.97;4940710;28;20043;-60
2023/05/25 10:01:16;;;;;;;7.75;2.63;;;;;;;29.62;47.78;98022.41;4940392;28;20125;-60
2023/05/25 10:03:47;;;;;;;3.67;2.30;;;;;;;29.50;46.84;98016.88;4929999;29;20047;-59
2023/05/25 10:06:32;;;;;;;5.95;3.40;;;;;;;29.22;48.66;98009.19;4945541;28;20130;-59
2023/05/25 10:09:03;;;;;;;6.13;2.90;;;;;;;29.04;48.14;98007.69;4940475;28;20051;-56
2023/05/25 10:11:38;;;;;;;3.97;2.85;;;;;;;29.06;48.57;97999.19;4937076;29;20422;-60
2023/05/25 10:14:12;;;;;;;3.00;2.55;;;;;;;29.19;47.27;98003.59;4919011;29;20123;-60
2023/05/25 10:16:48;;;;;;;3.00;2.70;;;;;;;29.08;48.14;98013.31;4948703;28;20114;-60
2023/05/25 10:19:40;;;;;;;7.20;2.30;;;;;;;29.12;47.92;98006.06;4946092;28;20118;-59
2023/05/25 10:22:23;;;;;;;5.38;2.90;;;;;;;28.90;46.64;97993.50;4914293;28;20098;-59
2023/05/25 10:25:15;;;;;;;2.85;1.98;;;;;;;29.13;47.67;97981.16;4945270;28;20051;-59
2023/05/25 10:28:03;;;;;;;8.30;2.30;;;;;;;29.04;48.48;97996.78;4937440;29;20047;-57
2023/05/25 10:30:35;;;;;;;4.43;2.20;;;;;;;28.82;48.39;97995.13;4947798;28;20672;-59
2023/05/25 10:33:06;;;;;;;4.53;1.85;;;;;;;28.95;48.47;97993.28;4946539;28;20051;-60
2023/05/25 10:35:38;;;;;;;6.38;2.15;;;;;;;29.03;48.16;98006.88;4928504;29;20051;-60
2023/05/25 10:38:33;;;;;;;4.82;1.85;;;;;;;28.82;48.33;98014.22;4947404;28;20059;-61
2023/05/25 10:41:05;;;;;;;4.22;1.70;;;;;;;29.09;47.21;98017.59;4939220;28;20070;-59
2023/05/25 10:43:39;;;;;;;6.38;1.60;;;;;;;29.01;48.99;98020.06;4931306;29;20071;-59
2023/05/25 10:46:11;;;;;;;4.47;1.85;;;;;;;29.05;46.53;98025.66;4933975;28;20496;-61
2023/05/25 10:48:48;;;;;;;5.57;2.70;;;;;;;29.05;48.76;98025.66;4938469;28;20061;-61
2023/05/25 10:51:21;;;;;;;3.38;1.92;;;;;;;29.14;48.99;98031.06;4927966;29;20057;-60
2023/05/25 10:53:58;;;;;;;;;;;;;;;29.04;48.21;98040.41;4930783;29;20141;-59
2023/05/25 10:56:31;;;;;;;6.00;2.30;;;;;;;29.11;48.76;98042.63;4930535;29;19985;-60
2023/05/25 10:59:01;;;;;;;5.10;2.10;;;;;;;28.99;48.37;98037.84;4931701;29;20138;-61
2023/05/25 11:01:33;;;;;;;7.03;2.05;;;;;;;28.93;48.34;98039.19;4945810;28;20058;-60
2023/05/25 11:04:09;;;;;;;6.65;2.40;;;;;;;28.99;48.58;98049.56;4947250;28;20062;-61
2023/05/25 11:06:44;;;;;;;7.13;1.90;;;;;;;28.84;48.07;98049.34;4930842;29;20062;-60
2023/05/25 11:09:37;;;;;;;2.58;1.83;;;;;;;28.82;48.58;98037.94;4947853;28;20120;-59
2023/05/25 11:12:19;;;;;;;5.32;2.33;;;;;;;28.89;47.27;98019.16;4947107;28;20047;-59
2023/05/25 11:15:14;;;;;;;8.88;2.13;;;;;;;28.98;47.33;98014.47;4944779;28;20113;-59
2023/05/25 11:17:45;;;;;;;7.20;2.20;;;;;;;29.10;47.21;98011.03;4947748;29;20118;-59
2023/05/25 11:20:22;;;;;;;5.28;2.53;;;;;;;29.06;46.08;98004.63;4930677;29;20047;-58
2023/05/25 11:22:52;;;;;;;4.22;1.77;;;;;;;29.01;46.54;98014.59;4931236;29;20057;-59
2023/05/25 11:25:47;;;;;;;3.22;1.95;;;;;;;28.94;47.47;98021.72;4931132;29;21015;-58
2023/05/25 11:28:17;;;;;;;7.53;2.10;;;;;;;28.96;46.62;98011.25;4945481;29;20061;-60
2023/05/25 11:30:46;;;;;;;6.03;2.10;;;;;;;29.00;46.49;98015.72;4931535;29;20081;-58
2023/05/25 11:33:21;;;;;;;5.35;2.15;;;;;;;29.01;47.48;98006.44;4946987;28;20047;-57
2023/05/25 11:35:51;;;;;;;5.22;2.30;;;;;;;28.99;47.18;98008.66;4948002;29;20359;-59
2023/05/25 11:38:24;;;;;;;6.32;2.25;;;;;;;29.09;49.17;98006.69;4946407;28;20129;-59
2023/05/25 11:40:53;;;;;;;3.65;2.20;;;;;;;28.96;50.48;98003.06;4947795;29;20139;-58
2023/05/25 11:43:25;;;;;;;5.43;2.40;;;;;;;28.96;51.71;98005.81;4911679;29;20074;-58
2023/05/25 11:45:59;;;;;;;8.35;2.13;;;;;;;28.90;51.12;98005.19;4943891;28;20410;-59
2023/05/25 11:48:28;;;;;;;5.95;2.67;;;;;;;28.57;52.61;98006.94;4947262;28;20150;-59
2023/05/25 11:51:05;;;;;;;3.65;2.03;;;;;;;28.71;52.00;97996.63;4929515;29;20082;-59
2023/05/25 11:53:40;;;;;;;6.53;2.60;;;;;;;28.88;51.48;97990.28;4923071;29;20051;-58
2023/05/25 11:56:14;;;;;;;5.15;1.85;;;;;;;28.78;52.04;97996.91;4947206;28;20061;-58